createdAt,value
2022-10-21T00:01:06.625Z,15.65
2022-10-21T00:03:36.882Z,15.63
2022-10-21T00:06:06.142Z,15.74
2022-10-21T00:08:34.583Z,15.69
2022-10-21T00:11:04.957Z,15.70
2022-10-21T00:13:35.065Z,15.65
2022-10-21T00:16:05.520Z,15.65
2022-10-21T00:18:35.180Z,15.67
2022-10-21T00:21:08.689Z,15.69
2022-10-21T00:23:37.397Z,15.73
2022-10-21T00:26:06.353Z,15.70
2022-10-21T00:28:34.538Z,15.63
2022-10-21T00:31:03.138Z,15.60
2022-10-21T00:33:31.310Z,15.54
2022-10-21T00:36:02.675Z,15.59
2022-10-21T00:38:33.419Z,15.55
2022-10-21T00:41:02.238Z,15.53
2022-10-21T00:43:31.326Z,15.54
2022-10-21T00:46:01.553Z,15.53
2022-10-21T00:48:35.417Z,15.49
2022-10-21T00:51:07.242Z,15.44
2022-10-21T00:53:39.580Z,15.32
2022-10-21T00:56:15.619Z,15.30
2022-10-21T00:58:47.660Z,15.24
2022-10-21T01:01:19.219Z,15.22
2022-10-21T01:03:50.063Z,15.21
2022-10-21T01:06:21.779Z,15.17
2022-10-21T01:08:53.020Z,15.21
2022-10-21T01:11:22.654Z,15.18
2022-10-21T01:14:02.921Z,15.16
2022-10-21T01:16:37.563Z,15.12
2022-10-21T01:19:29.733Z,15.13
2022-10-21T01:22:04.570Z,15.03
2022-10-21T01:25:08.753Z,14.97
2022-10-21T01:27:51.978Z,14.92
2022-10-21T01:30:38.196Z,14.94
2022-10-21T01:33:39.331Z,14.85
2022-10-21T01:36:16.586Z,14.78
2022-10-21T01:38:50.074Z,14.81
2022-10-21T01:41:25.528Z,14.75
2022-10-21T01:44:02.660Z,14.71
2022-10-21T01:46:36.795Z,14.68
2022-10-21T01:49:08.506Z,14.58
2022-10-21T01:51:38.187Z,14.59
2022-10-21T01:54:11.100Z,14.60
2022-10-21T01:56:41.987Z,14.58
2022-10-21T01:59:12.672Z,14.55
2022-10-21T02:01:44.244Z,14.54
2022-10-21T02:04:15.480Z,14.56
2022-10-21T02:06:43.795Z,14.60
2022-10-21T02:09:12.187Z,14.59
2022-10-21T02:11:43.371Z,14.56
2022-10-21T02:14:15.111Z,14.50
2022-10-21T02:16:46.129Z,14.49
2022-10-21T02:19:17.143Z,14.43
2022-10-21T02:21:47.938Z,14.42
2022-10-21T02:24:22.945Z,14.37
2022-10-21T02:26:51.348Z,14.34
2022-10-21T02:29:23.798Z,14.27
2022-10-21T02:32:05.309Z,14.27
2022-10-21T02:34:45.765Z,14.24
2022-10-21T02:37:22.787Z,14.21
2022-10-21T02:39:57.141Z,14.24
2022-10-21T02:42:29.023Z,14.24
2022-10-21T02:44:57.258Z,14.17
2022-10-21T02:47:27.709Z,14.08
2022-10-21T02:49:56.415Z,14.07
2022-10-21T02:52:24.641Z,14.05
2022-10-21T02:54:52.782Z,13.97
2022-10-21T02:57:20.916Z,13.93
2022-10-21T02:59:49.133Z,13.92
2022-10-21T03:02:17.329Z,13.86
2022-10-21T03:04:46.960Z,13.82
2022-10-21T03:07:15.220Z,13.80
2022-10-21T03:09:43.435Z,13.83
2022-10-21T03:12:11.577Z,13.77
2022-10-21T03:14:39.681Z,13.70
2022-10-21T03:17:07.960Z,13.67
2022-10-21T03:19:36.400Z,13.63
2022-10-21T03:22:06.022Z,13.56
2022-10-21T03:24:34.389Z,13.63
2022-10-21T03:27:02.705Z,13.66
2022-10-21T03:29:31.019Z,13.68
2022-10-21T03:31:59.200Z,13.66
2022-10-21T03:34:27.483Z,13.65
2022-10-21T03:36:55.667Z,13.63
2022-10-21T03:39:25.308Z,13.59
2022-10-21T03:41:53.495Z,13.59
2022-10-21T03:44:22.394Z,13.54
2022-10-21T03:46:52.069Z,13.58
2022-10-21T03:49:21.565Z,13.60
2022-10-21T03:51:50.503Z,13.56
2022-10-21T03:54:19.280Z,13.53
2022-10-21T03:56:49.275Z,13.52
2022-10-21T03:59:17.506Z,13.56
2022-10-21T04:01:46.355Z,13.61
2022-10-21T04:04:17.223Z,13.63
2022-10-21T04:06:45.465Z,13.58
2022-10-21T04:09:13.812Z,13.61
2022-10-21T04:11:42.012Z,13.61
2022-10-21T04:14:14.565Z,13.65
2022-10-21T04:16:43.813Z,13.63
2022-10-21T04:19:17.390Z,13.65
2022-10-21T04:21:46.482Z,13.61
2022-10-21T04:24:14.843Z,13.60
2022-10-21T04:26:43.193Z,13.64
2022-10-21T04:29:13.173Z,13.62
2022-10-21T04:31:41.482Z,13.56
2022-10-21T04:34:09.992Z,13.56
2022-10-21T04:36:38.129Z,13.60
2022-10-21T04:39:06.785Z,13.60
2022-10-21T04:41:35.420Z,13.63
2022-10-21T04:44:03.989Z,13.63
2022-10-21T04:46:34.683Z,13.64
2022-10-21T04:49:02.858Z,13.56
2022-10-21T04:54:00.690Z,13.61
2022-10-21T04:56:28.983Z,13.63
2022-10-21T04:58:57.175Z,13.65
2022-10-21T05:01:25.574Z,13.65
2022-10-21T05:03:55.295Z,13.68
2022-10-21T05:06:23.535Z,13.69
2022-10-21T05:08:51.936Z,13.68
2022-10-21T05:11:20.099Z,13.73
2022-10-21T05:13:48.356Z,13.70
2022-10-21T05:16:16.564Z,13.76
2022-10-21T05:18:44.822Z,13.75
2022-10-21T05:21:14.520Z,13.76
2022-10-21T05:23:43.042Z,13.75
2022-10-21T05:26:11.475Z,13.76
2022-10-21T05:28:39.674Z,13.75
2022-10-21T05:31:07.971Z,13.79
2022-10-21T05:33:36.229Z,13.79
2022-10-21T05:36:07.798Z,13.82
2022-10-21T05:38:37.470Z,13.85
2022-10-21T05:41:06.067Z,13.82
2022-10-21T05:43:34.737Z,13.81
2022-10-21T05:46:02.973Z,13.82
2022-10-21T05:48:34.183Z,13.89
2022-10-21T05:51:02.952Z,13.92
2022-10-21T05:53:31.205Z,13.98
2022-10-21T05:56:02.771Z,14.03
2022-10-21T05:58:32.593Z,14.14
2022-10-21T06:01:01.137Z,14.15
2022-10-21T06:03:31.335Z,14.19
2022-10-21T06:05:59.912Z,14.21
2022-10-21T06:08:29.325Z,14.24
2022-10-21T06:11:06.192Z,14.22
2022-10-21T06:13:35.017Z,14.21
2022-10-21T06:18:33.084Z,14.18
2022-10-21T06:21:01.386Z,14.13
2022-10-21T06:23:29.823Z,14.09
2022-10-21T06:25:59.580Z,14.07
2022-10-21T06:28:30.947Z,14.03
2022-10-21T06:30:59.153Z,14.01
2022-10-21T06:33:27.593Z,14.01
2022-10-21T06:35:56.354Z,14.00
2022-10-21T06:38:26.001Z,14.05
2022-10-21T06:40:54.630Z,14.05
2022-10-21T06:46:02.098Z,14.04
2022-10-21T06:48:30.359Z,14.05
2022-10-21T06:51:00.088Z,14.06
2022-10-21T06:53:28.663Z,14.06
2022-10-21T06:56:04.053Z,14.06
2022-10-21T06:58:32.991Z,14.12
2022-10-21T07:01:16.533Z,14.13
2022-10-21T07:03:56.588Z,14.15
2022-10-21T07:06:27.164Z,14.20
2022-10-21T07:08:59.153Z,14.15
2022-10-21T07:11:28.182Z,14.20
2022-10-21T07:13:57.014Z,14.26
2022-10-21T07:16:28.317Z,14.28
2022-10-21T07:18:57.269Z,14.33
2022-10-21T07:21:31.215Z,14.38
2022-10-21T07:24:01.043Z,14.43
2022-10-21T07:26:30.713Z,14.52
2022-10-21T07:29:01.050Z,14.58
2022-10-21T07:31:34.377Z,14.59
2022-10-21T07:36:38.458Z,14.65
2022-10-21T07:39:10.854Z,14.71
2022-10-21T07:41:42.071Z,14.79
2022-10-21T07:44:10.820Z,14.91
2022-10-21T07:46:41.528Z,14.88
2022-10-21T07:49:10.915Z,14.94
2022-10-21T07:51:39.902Z,14.97
2022-10-21T07:54:09.444Z,15.04
2022-10-21T07:56:40.889Z,15.03
2022-10-21T07:59:12.882Z,15.09
2022-10-21T08:01:45.868Z,15.09
2022-10-21T08:04:15.582Z,15.12
2022-10-21T08:06:44.675Z,15.21
2022-10-21T08:09:13.336Z,15.26
2022-10-21T08:11:41.990Z,15.30
2022-10-21T08:14:11.632Z,15.33
2022-10-21T08:16:40.990Z,15.42
2022-10-21T08:19:17.209Z,15.51
2022-10-21T08:21:45.401Z,15.67
2022-10-21T08:24:13.540Z,15.74
2022-10-21T08:26:41.654Z,15.83
2022-10-21T08:29:09.868Z,15.91
2022-10-21T08:31:38.031Z,16.00
2022-10-21T08:34:06.203Z,16.14
2022-10-21T08:36:35.830Z,16.27
2022-10-21T08:39:04.147Z,16.37
2022-10-21T08:41:54.649Z,16.54
2022-10-21T08:44:31.058Z,16.47
2022-10-21T08:47:06.113Z,16.58
2022-10-21T08:49:45.222Z,16.69
2022-10-21T08:52:18.311Z,16.74
2022-10-21T08:54:51.995Z,16.70
2022-10-21T08:57:20.507Z,16.75
2022-10-21T08:59:49.631Z,16.82
2022-10-21T09:02:26.907Z,16.79
2022-10-21T09:05:05.193Z,16.85
2022-10-21T09:07:48.344Z,16.86
2022-10-21T09:10:23.651Z,16.90
2022-10-21T09:13:02.558Z,17.01
2022-10-21T09:15:35.208Z,17.17
2022-10-21T09:18:17.812Z,17.20
2022-10-21T09:21:01.956Z,17.54
2022-10-21T09:23:54.531Z,17.92
2022-10-21T09:26:36.440Z,17.83
2022-10-21T09:29:21.792Z,17.92
2022-10-21T09:31:58.578Z,18.23
2022-10-21T09:34:43.307Z,18.12
2022-10-21T09:37:21.404Z,18.43
2022-10-21T09:39:58.820Z,18.42
2022-10-21T09:42:46.393Z,18.38
2022-10-21T09:45:22.842Z,18.41
2022-10-21T09:47:56.075Z,18.50
2022-10-21T09:50:24.685Z,18.87
2022-10-21T09:52:59.163Z,19.24
2022-10-21T09:55:30.206Z,19.39
2022-10-21T09:58:00.922Z,19.33
2022-10-21T10:00:48.041Z,19.32
2022-10-21T10:03:32.105Z,19.42
2022-10-21T10:06:00.714Z,18.96
2022-10-21T10:08:35.638Z,18.69
2022-10-21T10:11:21.646Z,18.44
2022-10-21T10:13:51.611Z,18.52
2022-10-21T10:16:23.441Z,18.52
2022-10-21T10:18:53.666Z,18.66
2022-10-21T10:21:23.538Z,18.76
2022-10-21T10:23:55.173Z,18.68
2022-10-21T10:26:29.924Z,18.86
2022-10-21T10:29:01.726Z,19.09
2022-10-21T10:31:33.621Z,19.10
2022-10-21T10:34:05.020Z,18.99
2022-10-21T10:36:37.228Z,19.23
2022-10-21T10:39:08.705Z,19.17
2022-10-21T10:41:40.857Z,18.96
2022-10-21T10:44:13.276Z,18.92
2022-10-21T10:46:41.680Z,18.78
2022-10-21T10:49:22.599Z,18.53
2022-10-21T10:52:05.720Z,18.56
2022-10-21T10:54:34.073Z,18.62
2022-10-21T10:57:06.929Z,18.69
2022-10-21T10:59:41.091Z,18.74
2022-10-21T11:02:35.277Z,19.01
2022-10-21T11:05:23.515Z,19.27
2022-10-21T11:07:53.201Z,19.27
2022-10-21T11:10:32.864Z,19.46
2022-10-21T11:13:04.130Z,19.43
2022-10-21T11:15:47.963Z,19.26
2022-10-21T11:18:25.316Z,19.03
2022-10-21T11:21:07.174Z,18.86
2022-10-21T11:23:59.908Z,18.97
2022-10-21T11:26:34.853Z,19.06
2022-10-21T11:29:10.517Z,19.12
2022-10-21T11:32:06.591Z,19.27
2022-10-21T11:34:49.847Z,19.10
2022-10-21T11:37:28.687Z,19.16
2022-10-21T11:40:00.613Z,19.15
2022-10-21T11:42:38.571Z,19.69
2022-10-21T11:45:27.661Z,20.14
2022-10-21T11:48:00.944Z,20.13
2022-10-21T11:50:34.646Z,20.33
2022-10-21T11:53:14.390Z,20.07
2022-10-21T11:55:48.837Z,20.15
2022-10-21T11:58:29.635Z,20.07
2022-10-21T12:01:23.837Z,20.20
2022-10-21T12:04:19.416Z,19.95
2022-10-21T12:06:55.807Z,20.15
2022-10-21T12:09:27.841Z,20.19
2022-10-21T12:12:03.764Z,20.04
2022-10-21T12:14:37.328Z,20.40
2022-10-21T12:17:12.670Z,20.35
2022-10-21T12:19:42.114Z,20.34
2022-10-21T12:22:12.449Z,20.36
2022-10-21T12:24:49.397Z,20.40
2022-10-21T12:27:26.342Z,20.45
2022-10-21T12:30:05.369Z,20.43
2022-10-21T12:32:43.292Z,20.40
2022-10-21T12:35:15.466Z,20.40
2022-10-21T12:38:06.602Z,20.49
2022-10-21T12:40:40.464Z,20.60
2022-10-21T12:43:22.515Z,20.58
2022-10-21T12:46:05.888Z,20.75
2022-10-21T12:48:39.253Z,20.59
2022-10-21T12:51:18.163Z,20.70
2022-10-21T12:56:30.804Z,20.81
2022-10-21T12:59:01.757Z,20.79
2022-10-21T13:01:43.335Z,20.86
2022-10-21T13:04:47.330Z,20.95
2022-10-21T13:07:38.433Z,20.99
2022-10-21T13:10:16.904Z,20.89
2022-10-21T13:12:47.839Z,20.89
2022-10-21T13:15:46.327Z,20.90
2022-10-21T13:18:34.507Z,20.83
2022-10-21T13:21:04.157Z,20.84
2022-10-21T13:23:37.761Z,20.80
2022-10-21T13:26:25.314Z,21.01
2022-10-21T13:29:16.538Z,20.95
2022-10-21T13:31:45.112Z,20.93
2022-10-21T13:34:29.240Z,20.84
2022-10-21T13:36:59.190Z,20.93
2022-10-21T13:39:31.169Z,20.74
2022-10-21T13:42:03.337Z,20.84
2022-10-21T13:44:36.350Z,20.91
2022-10-21T13:47:31.211Z,20.80
2022-10-21T13:50:06.965Z,20.80
2022-10-21T13:52:36.893Z,20.84
2022-10-21T13:55:07.029Z,20.96
2022-10-21T13:57:37.427Z,21.06
2022-10-21T14:00:08.485Z,21.11
2022-10-21T14:02:36.752Z,21.01
2022-10-21T14:05:05.248Z,20.92
2022-10-21T14:07:33.989Z,20.92
2022-10-21T14:10:07.424Z,20.77
2022-10-21T14:12:41.546Z,20.57
2022-10-21T14:15:18.067Z,20.61
2022-10-21T14:17:55.116Z,20.85
2022-10-21T14:20:27.894Z,20.84
2022-10-21T14:22:56.877Z,20.77
2022-10-21T14:25:27.452Z,20.65
2022-10-21T14:27:55.932Z,20.73
2022-10-21T14:30:25.844Z,20.70
2022-10-21T14:32:54.870Z,20.63
2022-10-21T14:35:26.507Z,20.43
2022-10-21T14:37:56.844Z,20.37
2022-10-21T14:40:32.288Z,20.13
2022-10-21T14:43:04.116Z,19.95
2022-10-21T14:45:35.780Z,19.73
2022-10-21T14:48:10.111Z,19.65
2022-10-21T14:50:40.252Z,19.61
2022-10-21T14:53:16.543Z,19.72
2022-10-21T14:55:48.219Z,19.75
2022-10-21T14:58:23.038Z,19.86
2022-10-21T15:00:55.879Z,19.87
2022-10-21T15:03:41.904Z,19.87
2022-10-21T15:06:14.129Z,19.79
2022-10-21T15:08:45.983Z,19.80
2022-10-21T15:11:23.408Z,19.70
2022-10-21T15:13:59.423Z,19.60
2022-10-21T15:16:32.919Z,19.61
2022-10-21T15:19:17.726Z,19.53
2022-10-21T15:21:49.819Z,19.53
2022-10-21T15:24:21.197Z,19.56
2022-10-21T15:26:54.067Z,19.50
2022-10-21T15:29:29.650Z,19.38
2022-10-21T15:31:59.104Z,19.38
2022-10-21T15:34:27.922Z,19.25
2022-10-21T15:36:56.420Z,19.11
2022-10-21T15:39:24.824Z,19.06
2022-10-21T15:41:56.406Z,19.07
2022-10-21T15:44:27.614Z,18.98
2022-10-21T15:47:00.702Z,18.91
2022-10-21T15:49:33.331Z,19.06
2022-10-21T15:52:01.998Z,19.09
2022-10-21T15:54:30.247Z,19.07
2022-10-21T15:57:01.122Z,18.96
2022-10-21T15:59:31.048Z,18.89
2022-10-21T16:02:00.518Z,18.83
2022-10-21T16:04:28.887Z,18.73
2022-10-21T16:06:57.462Z,18.62
2022-10-21T16:09:27.294Z,18.56
2022-10-21T16:12:00.170Z,18.47
2022-10-21T16:14:31.288Z,18.37
2022-10-21T16:17:00.157Z,18.33
2022-10-21T16:19:28.799Z,18.20
2022-10-21T16:21:57.466Z,18.13
2022-10-21T16:24:25.760Z,18.24
2022-10-21T16:26:53.902Z,18.14
2022-10-21T16:29:24.150Z,18.06
2022-10-21T16:31:54.011Z,18.09
2022-10-21T16:34:22.492Z,18.04
2022-10-21T16:36:50.759Z,17.95
2022-10-21T16:39:20.321Z,17.87
2022-10-21T16:41:48.672Z,17.75
2022-10-21T16:44:17.345Z,17.80
2022-10-21T16:46:51.125Z,17.76
2022-10-21T16:49:23.457Z,17.72
2022-10-21T16:51:53.099Z,17.64
2022-10-21T16:54:22.950Z,17.60
2022-10-21T16:56:53.487Z,17.55
2022-10-21T16:59:23.696Z,17.56
2022-10-21T17:01:52.322Z,17.51
2022-10-21T17:04:21.972Z,17.48
2022-10-21T17:06:50.317Z,17.49
2022-10-21T17:09:19.451Z,17.50
2022-10-21T17:11:47.891Z,17.51
2022-10-21T17:14:19.607Z,17.50
2022-10-21T17:16:48.291Z,17.53
2022-10-21T17:19:16.838Z,17.44
2022-10-21T17:21:46.705Z,17.48
2022-10-21T17:24:16.712Z,17.46
2022-10-21T17:26:45.499Z,17.44
2022-10-21T17:29:15.743Z,17.38
2022-10-21T17:31:46.315Z,17.33
2022-10-21T17:34:27.339Z,17.30
2022-10-21T17:36:57.344Z,17.45
2022-10-21T17:39:25.856Z,17.38
2022-10-21T17:41:54.310Z,17.35
2022-10-21T17:44:23.063Z,17.31
2022-10-21T17:46:54.501Z,17.28
2022-10-21T17:49:23.430Z,17.18
2022-10-21T17:51:51.670Z,17.22
2022-10-21T17:54:25.957Z,17.22
2022-10-21T17:56:57.746Z,17.19
2022-10-21T17:59:26.758Z,17.09
2022-10-21T18:01:55.249Z,17.05
2022-10-21T18:04:23.628Z,17.01
2022-10-21T18:06:52.055Z,17.07
2022-10-21T18:09:22.037Z,17.08
2022-10-21T18:11:50.350Z,17.04
2022-10-21T18:14:18.561Z,17.02
2022-10-21T18:16:46.943Z,16.98
2022-10-21T18:19:15.173Z,16.98
2022-10-21T18:21:43.538Z,16.95
2022-10-21T18:24:12.782Z,16.90
2022-10-21T18:26:42.603Z,16.96
2022-10-21T18:29:10.914Z,16.86
2022-10-21T18:31:39.839Z,16.82
2022-10-21T18:34:09.702Z,16.74
2022-10-21T18:36:38.052Z,16.73
2022-10-21T18:39:06.694Z,16.72
2022-10-21T18:41:35.320Z,16.73
2022-10-21T18:44:08.385Z,16.64
2022-10-21T18:46:38.870Z,16.63
2022-10-21T18:49:08.969Z,16.60
2022-10-21T18:51:37.468Z,16.56
2022-10-21T18:54:05.666Z,16.58
2022-10-21T18:56:34.381Z,16.48
2022-10-21T18:59:05.049Z,16.45
2022-10-21T19:01:33.467Z,16.59
2022-10-21T19:04:04.185Z,16.54
2022-10-21T19:06:37.036Z,16.50
2022-10-21T19:09:08.481Z,16.48
2022-10-21T19:11:37.363Z,16.44
2022-10-21T19:14:09.791Z,16.44
2022-10-21T19:16:41.469Z,16.42
2022-10-21T19:19:11.881Z,16.33
2022-10-21T19:21:40.465Z,16.33
2022-10-21T19:24:09.338Z,16.32
2022-10-21T19:26:42.060Z,16.31
2022-10-21T19:29:16.233Z,16.30
2022-10-21T19:34:14.614Z,16.34
2022-10-21T19:36:42.991Z,16.31
2022-10-21T19:39:11.535Z,16.33
2022-10-21T19:41:39.907Z,16.36
2022-10-21T19:44:08.341Z,16.34
2022-10-21T19:46:39.313Z,16.33
2022-10-21T19:49:09.329Z,16.36
2022-10-21T19:51:38.910Z,16.40
2022-10-21T19:54:08.900Z,16.42
2022-10-21T19:56:37.244Z,16.45
2022-10-21T19:59:06.798Z,16.41
2022-10-21T20:01:37.508Z,16.37
2022-10-21T20:04:06.203Z,16.36
2022-10-21T20:06:36.910Z,16.32
2022-10-21T20:09:07.362Z,16.32
2022-10-21T20:11:35.961Z,16.31
2022-10-21T20:14:04.512Z,16.22
2022-10-21T20:16:35.310Z,16.21
2022-10-21T20:19:06.608Z,16.21
2022-10-21T20:21:36.715Z,16.29
2022-10-21T20:24:05.915Z,16.33
2022-10-21T20:26:34.969Z,16.32
2022-10-21T20:29:03.679Z,16.36
2022-10-21T20:31:32.370Z,16.28
2022-10-21T20:34:00.638Z,16.27
2022-10-21T20:36:32.477Z,16.21
2022-10-21T20:39:03.012Z,16.20
2022-10-21T20:41:34.502Z,16.14
2022-10-21T20:44:03.795Z,16.10
2022-10-21T20:46:35.433Z,16.13
2022-10-21T20:49:05.458Z,16.14
2022-10-21T20:51:37.187Z,16.12
2022-10-21T20:54:07.692Z,16.12
2022-10-21T20:56:38.200Z,16.01
2022-10-21T20:59:08.283Z,16.01
2022-10-21T21:01:41.608Z,16.02
2022-10-21T21:04:12.700Z,15.99
2022-10-21T21:06:44.293Z,15.95
2022-10-21T21:12:04.350Z,15.91
2022-10-21T21:14:33.220Z,15.86
2022-10-21T21:17:01.623Z,15.84
2022-10-21T21:19:29.967Z,15.84
2022-10-21T21:21:59.621Z,15.83
2022-10-21T21:24:30.935Z,15.87
2022-10-21T21:26:59.086Z,15.86
2022-10-21T21:29:27.528Z,15.88
2022-10-21T21:31:55.768Z,15.86
2022-10-21T21:34:28.866Z,15.85
2022-10-21T21:36:57.051Z,15.83
2022-10-21T21:39:27.860Z,15.82
2022-10-21T21:41:56.065Z,15.81
2022-10-21T21:44:24.322Z,15.78
2022-10-21T21:46:52.574Z,15.77
2022-10-21T21:49:21.734Z,15.74
2022-10-21T21:51:49.932Z,15.73
2022-10-21T21:54:18.108Z,15.66
2022-10-21T21:56:47.728Z,15.65
2022-10-21T21:59:16.196Z,15.61
2022-10-21T22:01:44.460Z,15.61
2022-10-21T22:04:12.746Z,15.56
2022-10-21T22:06:40.954Z,15.53
2022-10-21T22:09:11.716Z,15.56
2022-10-21T22:11:41.031Z,15.52
2022-10-21T22:14:10.580Z,15.55
2022-10-21T22:16:39.134Z,15.55
2022-10-21T22:19:07.574Z,15.47
2022-10-21T22:21:36.514Z,15.43
2022-10-21T22:24:04.828Z,15.33
2022-10-21T22:26:33.121Z,15.30
2022-10-21T22:29:01.321Z,15.31
2022-10-21T22:31:31.166Z,15.26
2022-10-21T22:34:01.298Z,15.22
2022-10-21T22:36:30.125Z,15.18
2022-10-21T22:38:58.871Z,15.19
2022-10-21T22:41:27.530Z,15.21
2022-10-21T22:43:55.793Z,15.19
2022-10-21T22:46:39.444Z,15.17
2022-10-21T22:49:11.253Z,15.11
2022-10-21T22:51:39.746Z,15.01
2022-10-21T22:54:19.218Z,15.08
2022-10-21T22:56:52.625Z,15.03
2022-10-21T22:59:21.019Z,14.95
2022-10-21T23:01:49.496Z,14.94
2022-10-21T23:04:19.083Z,14.88
2022-10-21T23:06:47.354Z,14.85
2022-10-21T23:09:16.418Z,14.80
2022-10-21T23:11:46.606Z,14.73
2022-10-21T23:14:15.314Z,14.80
2022-10-21T23:16:43.574Z,14.74
2022-10-21T23:21:46.233Z,14.66
2022-10-21T23:24:15.283Z,14.68
2022-10-21T23:26:43.535Z,14.65
2022-10-21T23:29:12.664Z,14.60
2022-10-21T23:31:40.870Z,14.58
2022-10-21T23:34:09.500Z,14.58
2022-10-21T23:36:37.845Z,14.58
2022-10-21T23:39:07.416Z,14.51
2022-10-21T23:41:35.928Z,14.52
2022-10-21T23:44:04.529Z,14.54
2022-10-21T23:46:35.582Z,14.49
2022-10-21T23:49:03.764Z,14.49
2022-10-21T23:51:32.004Z,14.50
2022-10-21T23:54:00.224Z,14.55
2022-10-21T23:56:29.862Z,14.58
2022-10-21T23:58:58.054Z,14.56
